sensor_id;sensor_type;location;lat;lon;timestamp;P1;durP1;ratioP1;P2;durP2;ratioP2
70715;SDS011;59053;50.832;12.882;2023-04-08T00:00:03;21.77;;;8.43;;
70715;SDS011;59053;50.832;12.882;2023-04-08T00:02:35;23.40;;;8.32;;
70715;SDS011;59053;50.832;12.882;2023-04-08T00:05:00;24.63;;;9.03;;
70715;SDS011;59053;50.832;12.882;2023-04-08T00:07:26;22.25;;;8.25;;
70715;SDS011;59053;50.832;12.882;2023-04-08T00:09:51;23.40;;;8.43;;
70715;SDS011;59053;50.832;12.882;2023-04-08T00:12:16;15.17;;;5.53;;
70715;SDS011;59053;50.832;12.882;2023-04-08T00:14:42;12.50;;;4.93;;
70715;SDS011;59053;50.832;12.882;2023-04-08T00:17:07;19.37;;;7.23;;
70715;SDS011;59053;50.832;12.882;2023-04-08T00:19:32;16.93;;;5.90;;
70715;SDS011;59053;50.832;12.882;2023-04-08T00:21:58;18.05;;;6.72;;
70715;SDS011;59053;50.832;12.882;2023-04-08T00:24:24;16.77;;;6.53;;
70715;SDS011;59053;50.832;12.882;2023-04-08T00:26:49;17.08;;;6.25;;
70715;SDS011;59053;50.832;12.882;2023-04-08T00:29:15;16.47;;;5.97;;
70715;SDS011;59053;50.832;12.882;2023-04-08T00:31:41;17.30;;;5.97;;
70715;SDS011;59053;50.832;12.882;2023-04-08T00:34:06;16.63;;;6.23;;
70715;SDS011;59053;50.832;12.882;2023-04-08T00:36:31;16.37;;;5.10;;
70715;SDS011;59053;50.832;12.882;2023-04-08T00:38:57;17.05;;;6.15;;
70715;SDS011;59053;50.832;12.882;2023-04-08T00:41:23;16.23;;;5.90;;
70715;SDS011;59053;50.832;12.882;2023-04-08T00:43:48;19.13;;;6.50;;
70715;SDS011;59053;50.832;12.882;2023-04-08T00:46:13;17.43;;;6.93;;
70715;SDS011;59053;50.832;12.882;2023-04-08T00:48:39;14.03;;;5.03;;
70715;SDS011;59053;50.832;12.882;2023-04-08T00:51:04;9.68;;;3.88;;
70715;SDS011;59053;50.832;12.882;2023-04-08T00:53:30;18.33;;;6.57;;
70715;SDS011;59053;50.832;12.882;2023-04-08T00:55:55;17.60;;;7.00;;
70715;SDS011;59053;50.832;12.882;2023-04-08T00:58:21;17.33;;;6.23;;
70715;SDS011;59053;50.832;12.882;2023-04-08T01:00:52;17.48;;;6.70;;
70715;SDS011;59053;50.832;12.882;2023-04-08T01:03:37;16.63;;;6.53;;
70715;SDS011;59053;50.832;12.882;2023-04-08T01:06:16;17.38;;;6.28;;
70715;SDS011;59053;50.832;12.882;2023-04-08T01:08:48;16.07;;;6.20;;
70715;SDS011;59053;50.832;12.882;2023-04-08T01:14:26;18.48;;;6.47;;
70715;SDS011;59053;50.832;12.882;2023-04-08T01:16:54;16.08;;;6.60;;
70715;SDS011;59053;50.832;12.882;2023-04-08T01:19:31;10.40;;;3.72;;
70715;SDS011;59053;50.832;12.882;2023-04-08T01:22:02;16.13;;;5.43;;
70715;SDS011;59053;50.832;12.882;2023-04-08T01:24:35;15.05;;;5.97;;
70715;SDS011;59053;50.832;12.882;2023-04-08T01:27:01;16.42;;;6.72;;
70715;SDS011;59053;50.832;12.882;2023-04-08T01:29:27;17.80;;;6.63;;
70715;SDS011;59053;50.832;12.882;2023-04-08T01:31:53;17.15;;;6.95;;
70715;SDS011;59053;50.832;12.882;2023-04-08T01:34:20;15.73;;;6.00;;
70715;SDS011;59053;50.832;12.882;2023-04-08T01:36:46;14.35;;;6.03;;
70715;SDS011;59053;50.832;12.882;2023-04-08T01:39:12;17.48;;;6.18;;
70715;SDS011;59053;50.832;12.882;2023-04-08T01:41:38;15.63;;;5.95;;
70715;SDS011;59053;50.832;12.882;2023-04-08T01:44:04;12.93;;;5.10;;
70715;SDS011;59053;50.832;12.882;2023-04-08T01:46:30;13.57;;;5.10;;
70715;SDS011;59053;50.832;12.882;2023-04-08T01:48:56;15.00;;;5.43;;
70715;SDS011;59053;50.832;12.882;2023-04-08T01:51:23;12.73;;;4.90;;
70715;SDS011;59053;50.832;12.882;2023-04-08T01:53:48;12.00;;;4.43;;
70715;SDS011;59053;50.832;12.882;2023-04-08T01:56:14;14.00;;;5.00;;
70715;SDS011;59053;50.832;12.882;2023-04-08T01:58:47;13.23;;;4.88;;
70715;SDS011;59053;50.832;12.882;2023-04-08T02:01:17;13.25;;;5.18;;
70715;SDS011;59053;50.832;12.882;2023-04-08T02:03:44;12.65;;;4.70;;
70715;SDS011;59053;50.832;12.882;2023-04-08T02:06:12;12.05;;;4.70;;
70715;SDS011;59053;50.832;12.882;2023-04-08T02:08:37;11.43;;;4.23;;
70715;SDS011;59053;50.832;12.882;2023-04-08T02:11:03;12.03;;;4.90;;
70715;SDS011;59053;50.832;12.882;2023-04-08T02:13:29;10.98;;;4.38;;
70715;SDS011;59053;50.832;12.882;2023-04-08T02:15:56;11.88;;;4.43;;
70715;SDS011;59053;50.832;12.882;2023-04-08T02:18:27;11.27;;;3.95;;
70715;SDS011;59053;50.832;12.882;2023-04-08T02:20:55;12.80;;;4.10;;
70715;SDS011;59053;50.832;12.882;2023-04-08T02:23:23;10.75;;;3.70;;
70715;SDS011;59053;50.832;12.882;2023-04-08T02:25:49;8.68;;;3.33;;
70715;SDS011;59053;50.832;12.882;2023-04-08T02:28:17;12.00;;;4.07;;
70715;SDS011;59053;50.832;12.882;2023-04-08T02:30:46;10.57;;;3.65;;
70715;SDS011;59053;50.832;12.882;2023-04-08T02:33:13;10.70;;;3.50;;
70715;SDS011;59053;50.832;12.882;2023-04-08T02:35:39;7.73;;;3.10;;
70715;SDS011;59053;50.832;12.882;2023-04-08T02:38:06;9.77;;;2.95;;
70715;SDS011;59053;50.832;12.882;2023-04-08T02:40:33;9.15;;;3.33;;
70715;SDS011;59053;50.832;12.882;2023-04-08T02:43:01;11.15;;;3.78;;
70715;SDS011;59053;50.832;12.882;2023-04-08T02:45:29;10.43;;;3.00;;
70715;SDS011;59053;50.832;12.882;2023-04-08T02:47:57;8.30;;;3.40;;
70715;SDS011;59053;50.832;12.882;2023-04-08T02:50:25;9.27;;;3.13;;
70715;SDS011;59053;50.832;12.882;2023-04-08T02:52:50;9.77;;;3.13;;
70715;SDS011;59053;50.832;12.882;2023-04-08T02:55:16;11.33;;;3.50;;
70715;SDS011;59053;50.832;12.882;2023-04-08T02:57:41;9.67;;;2.93;;
70715;SDS011;59053;50.832;12.882;2023-04-08T03:00:07;10.17;;;2.50;;
70715;SDS011;59053;50.832;12.882;2023-04-08T03:02:32;11.02;;;2.97;;
70715;SDS011;59053;50.832;12.882;2023-04-08T03:04:58;9.00;;;2.80;;
70715;SDS011;59053;50.832;12.882;2023-04-08T03:07:23;10.70;;;3.53;;
70715;SDS011;59053;50.832;12.882;2023-04-08T03:09:49;11.17;;;3.40;;
70715;SDS011;59053;50.832;12.882;2023-04-08T03:12:14;11.07;;;3.17;;
70715;SDS011;59053;50.832;12.882;2023-04-08T03:14:40;12.47;;;3.97;;
70715;SDS011;59053;50.832;12.882;2023-04-08T03:17:05;13.50;;;3.57;;
70715;SDS011;59053;50.832;12.882;2023-04-08T03:19:31;12.30;;;3.33;;
70715;SDS011;59053;50.832;12.882;2023-04-08T03:21:56;4.47;;;1.97;;
70715;SDS011;59053;50.832;12.882;2023-04-08T03:24:21;13.33;;;3.93;;
70715;SDS011;59053;50.832;12.882;2023-04-08T03:26:47;13.03;;;4.10;;
70715;SDS011;59053;50.832;12.882;2023-04-08T03:29:12;7.43;;;2.67;;
70715;SDS011;59053;50.832;12.882;2023-04-08T03:31:37;13.07;;;3.97;;
70715;SDS011;59053;50.832;12.882;2023-04-08T03:34:03;8.90;;;2.57;;
70715;SDS011;59053;50.832;12.882;2023-04-08T03:36:28;10.20;;;3.57;;
70715;SDS011;59053;50.832;12.882;2023-04-08T03:38:53;11.73;;;3.50;;
70715;SDS011;59053;50.832;12.882;2023-04-08T03:41:19;11.02;;;3.50;;
70715;SDS011;59053;50.832;12.882;2023-04-08T03:43:45;9.67;;;3.27;;
70715;SDS011;59053;50.832;12.882;2023-04-08T03:46:10;10.02;;;3.30;;
70715;SDS011;59053;50.832;12.882;2023-04-08T03:48:35;5.80;;;2.00;;
70715;SDS011;59053;50.832;12.882;2023-04-08T03:51:01;9.37;;;3.47;;
70715;SDS011;59053;50.832;12.882;2023-04-08T03:53:26;10.03;;;3.37;;
70715;SDS011;59053;50.832;12.882;2023-04-08T03:55:53;10.63;;;3.53;;
70715;SDS011;59053;50.832;12.882;2023-04-08T03:58:19;9.85;;;3.15;;
70715;SDS011;59053;50.832;12.882;2023-04-08T04:00:45;6.20;;;2.47;;
70715;SDS011;59053;50.832;12.882;2023-04-08T04:03:10;9.80;;;3.03;;
70715;SDS011;59053;50.832;12.882;2023-04-08T04:05:37;9.32;;;3.10;;
70715;SDS011;59053;50.832;12.882;2023-04-08T04:08:03;8.15;;;2.85;;
70715;SDS011;59053;50.832;12.882;2023-04-08T04:10:28;5.37;;;1.90;;
70715;SDS011;59053;50.832;12.882;2023-04-08T04:12:54;8.20;;;2.77;;
70715;SDS011;59053;50.832;12.882;2023-04-08T04:15:19;8.60;;;2.97;;
70715;SDS011;59053;50.832;12.882;2023-04-08T04:17:46;5.55;;;2.08;;
70715;SDS011;59053;50.832;12.882;2023-04-08T04:20:13;6.43;;;2.30;;
70715;SDS011;59053;50.832;12.882;2023-04-08T04:22:38;7.32;;;2.30;;
70715;SDS011;59053;50.832;12.882;2023-04-08T04:25:04;6.83;;;2.43;;
70715;SDS011;59053;50.832;12.882;2023-04-08T04:27:29;7.43;;;2.60;;
70715;SDS011;59053;50.832;12.882;2023-04-08T04:29:55;7.00;;;2.43;;
70715;SDS011;59053;50.832;12.882;2023-04-08T04:32:20;3.37;;;1.50;;
70715;SDS011;59053;50.832;12.882;2023-04-08T04:34:46;7.27;;;2.27;;
70715;SDS011;59053;50.832;12.882;2023-04-08T04:37:11;6.88;;;2.58;;
70715;SDS011;59053;50.832;12.882;2023-04-08T04:39:37;7.13;;;2.93;;
70715;SDS011;59053;50.832;12.882;2023-04-08T04:42:03;9.52;;;2.78;;
70715;SDS011;59053;50.832;12.882;2023-04-08T04:44:28;10.03;;;3.00;;
70715;SDS011;59053;50.832;12.882;2023-04-08T04:46:54;6.10;;;2.30;;
70715;SDS011;59053;50.832;12.882;2023-04-08T04:49:19;9.53;;;3.00;;
70715;SDS011;59053;50.832;12.882;2023-04-08T04:51:44;7.57;;;2.60;;
70715;SDS011;59053;50.832;12.882;2023-04-08T04:54:10;8.33;;;2.47;;
70715;SDS011;59053;50.832;12.882;2023-04-08T04:56:35;4.83;;;2.17;;
70715;SDS011;59053;50.832;12.882;2023-04-08T04:59:01;8.13;;;2.40;;
70715;SDS011;59053;50.832;12.882;2023-04-08T05:01:26;8.27;;;2.60;;
70715;SDS011;59053;50.832;12.882;2023-04-08T05:03:53;8.80;;;2.80;;
70715;SDS011;59053;50.832;12.882;2023-04-08T05:06:18;4.77;;;1.70;;
70715;SDS011;59053;50.832;12.882;2023-04-08T05:08:43;8.20;;;2.80;;
70715;SDS011;59053;50.832;12.882;2023-04-08T05:11:09;4.50;;;1.58;;
70715;SDS011;59053;50.832;12.882;2023-04-08T05:13:35;7.60;;;2.57;;
70715;SDS011;59053;50.832;12.882;2023-04-08T05:16:00;7.50;;;2.30;;
70715;SDS011;59053;50.832;12.882;2023-04-08T05:18:25;6.43;;;1.95;;
70715;SDS011;59053;50.832;12.882;2023-04-08T05:20:51;8.50;;;2.47;;
70715;SDS011;59053;50.832;12.882;2023-04-08T05:23:16;8.43;;;2.20;;
70715;SDS011;59053;50.832;12.882;2023-04-08T05:25:42;8.53;;;2.67;;
70715;SDS011;59053;50.832;12.882;2023-04-08T05:28:07;8.45;;;2.60;;
70715;SDS011;59053;50.832;12.882;2023-04-08T05:30:33;4.07;;;1.20;;
70715;SDS011;59053;50.832;12.882;2023-04-08T05:33:04;8.07;;;2.40;;
70715;SDS011;59053;50.832;12.882;2023-04-08T05:35:30;7.85;;;2.22;;
70715;SDS011;59053;50.832;12.882;2023-04-08T05:37:55;6.37;;;1.70;;
70715;SDS011;59053;50.832;12.882;2023-04-08T05:40:21;6.83;;;2.10;;
70715;SDS011;59053;50.832;12.882;2023-04-08T05:42:46;3.47;;;1.30;;
70715;SDS011;59053;50.832;12.882;2023-04-08T05:48:23;4.07;;;1.38;;
70715;SDS011;59053;50.832;12.882;2023-04-08T05:50:56;6.88;;;2.00;;
70715;SDS011;59053;50.832;12.882;2023-04-08T05:53:21;7.18;;;2.05;;
70715;SDS011;59053;50.832;12.882;2023-04-08T05:55:48;5.20;;;1.70;;
70715;SDS011;59053;50.832;12.882;2023-04-08T06:01:10;2.63;;;1.07;;
70715;SDS011;59053;50.832;12.882;2023-04-08T06:03:36;5.82;;;1.80;;
70715;SDS011;59053;50.832;12.882;2023-04-08T06:06:01;3.93;;;1.50;;
70715;SDS011;59053;50.832;12.882;2023-04-08T06:08:26;5.83;;;2.20;;
70715;SDS011;59053;50.832;12.882;2023-04-08T06:11:10;3.65;;;1.30;;
70715;SDS011;59053;50.832;12.882;2023-04-08T06:13:51;6.50;;;2.17;;
70715;SDS011;59053;50.832;12.882;2023-04-08T06:16:16;6.88;;;2.10;;
70715;SDS011;59053;50.832;12.882;2023-04-08T06:18:42;6.27;;;2.20;;
70715;SDS011;59053;50.832;12.882;2023-04-08T06:21:07;5.93;;;2.20;;
70715;SDS011;59053;50.832;12.882;2023-04-08T06:23:34;7.60;;;2.37;;
70715;SDS011;59053;50.832;12.882;2023-04-08T06:26:00;4.70;;;1.63;;
70715;SDS011;59053;50.832;12.882;2023-04-08T06:28:25;3.63;;;1.67;;
70715;SDS011;59053;50.832;12.882;2023-04-08T06:30:53;7.85;;;2.10;;
70715;SDS011;59053;50.832;12.882;2023-04-08T06:33:19;5.13;;;1.98;;
70715;SDS011;59053;50.832;12.882;2023-04-08T06:35:44;5.97;;;2.20;;
70715;SDS011;59053;50.832;12.882;2023-04-08T06:38:10;4.30;;;1.53;;
70715;SDS011;59053;50.832;12.882;2023-04-08T06:40:37;5.97;;;1.87;;
70715;SDS011;59053;50.832;12.882;2023-04-08T06:43:03;6.28;;;1.90;;
70715;SDS011;59053;50.832;12.882;2023-04-08T06:45:34;4.55;;;1.77;;
70715;SDS011;59053;50.832;12.882;2023-04-08T06:48:00;4.40;;;1.53;;
70715;SDS011;59053;50.832;12.882;2023-04-08T06:50:32;3.90;;;1.50;;
70715;SDS011;59053;50.832;12.882;2023-04-08T06:53:04;6.57;;;1.60;;
70715;SDS011;59053;50.832;12.882;2023-04-08T06:55:31;2.77;;;1.10;;
70715;SDS011;59053;50.832;12.882;2023-04-08T06:57:56;3.38;;;1.48;;
70715;SDS011;59053;50.832;12.882;2023-04-08T07:00:34;2.57;;;0.93;;
70715;SDS011;59053;50.832;12.882;2023-04-08T07:03:15;4.97;;;1.35;;
70715;SDS011;59053;50.832;12.882;2023-04-08T07:08:39;3.65;;;1.25;;
70715;SDS011;59053;50.832;12.882;2023-04-08T07:11:04;3.33;;;1.15;;
70715;SDS011;59053;50.832;12.882;2023-04-08T07:13:47;4.53;;;1.57;;
70715;SDS011;59053;50.832;12.882;2023-04-08T07:19:01;5.30;;;1.35;;
70715;SDS011;59053;50.832;12.882;2023-04-08T07:21:27;3.73;;;1.40;;
70715;SDS011;59053;50.832;12.882;2023-04-08T07:23:52;2.57;;;1.00;;
70715;SDS011;59053;50.832;12.882;2023-04-08T07:26:20;5.63;;;1.70;;
70715;SDS011;59053;50.832;12.882;2023-04-08T07:28:46;5.93;;;1.70;;
70715;SDS011;59053;50.832;12.882;2023-04-08T07:31:12;6.03;;;1.93;;
70715;SDS011;59053;50.832;12.882;2023-04-08T07:33:39;7.43;;;2.33;;
70715;SDS011;59053;50.832;12.882;2023-04-08T07:36:05;7.27;;;2.50;;
70715;SDS011;59053;50.832;12.882;2023-04-08T07:38:43;7.32;;;2.22;;
70715;SDS011;59053;50.832;12.882;2023-04-08T07:41:09;6.13;;;2.20;;
70715;SDS011;59053;50.832;12.882;2023-04-08T07:43:35;9.57;;;2.38;;
70715;SDS011;59053;50.832;12.882;2023-04-08T07:46:08;7.00;;;3.20;;
70715;SDS011;59053;50.832;12.882;2023-04-08T07:48:33;20.52;;;7.55;;
70715;SDS011;59053;50.832;12.882;2023-04-08T07:51:03;11.98;;;4.32;;
70715;SDS011;59053;50.832;12.882;2023-04-08T07:53:29;9.77;;;2.97;;
70715;SDS011;59053;50.832;12.882;2023-04-08T07:55:55;7.82;;;2.50;;
70715;SDS011;59053;50.832;12.882;2023-04-08T07:58:21;9.80;;;2.87;;
70715;SDS011;59053;50.832;12.882;2023-04-08T08:03:44;4.80;;;1.73;;
70715;SDS011;59053;50.832;12.882;2023-04-08T08:06:10;7.10;;;2.30;;
70715;SDS011;59053;50.832;12.882;2023-04-08T08:08:43;9.25;;;3.20;;
70715;SDS011;59053;50.832;12.882;2023-04-08T08:11:08;11.57;;;3.63;;
70715;SDS011;59053;50.832;12.882;2023-04-08T08:13:38;10.17;;;3.30;;
70715;SDS011;59053;50.832;12.882;2023-04-08T08:16:04;9.57;;;3.00;;
70715;SDS011;59053;50.832;12.882;2023-04-08T08:18:39;9.32;;;3.50;;
70715;SDS011;59053;50.832;12.882;2023-04-08T08:21:05;13.13;;;4.78;;
70715;SDS011;59053;50.832;12.882;2023-04-08T08:23:31;15.20;;;4.83;;
70715;SDS011;59053;50.832;12.882;2023-04-08T08:29:03;14.25;;;4.43;;
70715;SDS011;59053;50.832;12.882;2023-04-08T08:31:44;16.38;;;5.28;;
70715;SDS011;59053;50.832;12.882;2023-04-08T08:34:10;10.38;;;3.78;;
70715;SDS011;59053;50.832;12.882;2023-04-08T08:36:47;20.27;;;6.77;;
70715;SDS011;59053;50.832;12.882;2023-04-08T08:39:13;16.83;;;5.47;;
70715;SDS011;59053;50.832;12.882;2023-04-08T08:41:40;19.33;;;8.40;;
70715;SDS011;59053;50.832;12.882;2023-04-08T08:44:08;17.02;;;5.72;;
70715;SDS011;59053;50.832;12.882;2023-04-08T08:46:42;18.30;;;5.57;;
70715;SDS011;59053;50.832;12.882;2023-04-08T08:49:08;21.77;;;6.67;;
70715;SDS011;59053;50.832;12.882;2023-04-08T08:51:34;23.88;;;7.63;;
70715;SDS011;59053;50.832;12.882;2023-04-08T08:54:03;29.85;;;8.95;;
70715;SDS011;59053;50.832;12.882;2023-04-08T08:56:28;25.60;;;8.53;;
70715;SDS011;59053;50.832;12.882;2023-04-08T08:58:54;20.17;;;7.05;;
70715;SDS011;59053;50.832;12.882;2023-04-08T09:01:28;29.13;;;8.30;;
70715;SDS011;59053;50.832;12.882;2023-04-08T09:06:35;28.15;;;9.40;;
70715;SDS011;59053;50.832;12.882;2023-04-08T09:09:01;22.77;;;7.18;;
70715;SDS011;59053;50.832;12.882;2023-04-08T09:18:22;29.13;;;9.93;;
70715;SDS011;59053;50.832;12.882;2023-04-08T09:21:00;31.50;;;10.30;;
70715;SDS011;59053;50.832;12.882;2023-04-08T09:23:36;30.85;;;10.85;;
70715;SDS011;59053;50.832;12.882;2023-04-08T09:26:17;31.48;;;10.88;;
70715;SDS011;59053;50.832;12.882;2023-04-08T09:31:31;22.00;;;8.73;;
70715;SDS011;59053;50.832;12.882;2023-04-08T09:34:00;31.52;;;10.57;;
70715;SDS011;59053;50.832;12.882;2023-04-08T09:42:53;26.30;;;8.82;;
70715;SDS011;59053;50.832;12.882;2023-04-08T09:45:20;30.47;;;11.40;;
70715;SDS011;59053;50.832;12.882;2023-04-08T09:50:26;28.83;;;10.53;;
70715;SDS011;59053;50.832;12.882;2023-04-08T09:52:58;34.63;;;11.68;;
70715;SDS011;59053;50.832;12.882;2023-04-08T09:55:29;32.45;;;11.20;;
70715;SDS011;59053;50.832;12.882;2023-04-08T10:00:49;30.88;;;11.35;;
70715;SDS011;59053;50.832;12.882;2023-04-08T10:08:52;32.90;;;11.18;;
70715;SDS011;59053;50.832;12.882;2023-04-08T10:11:20;31.63;;;9.73;;
70715;SDS011;59053;50.832;12.882;2023-04-08T10:13:59;22.02;;;9.25;;
70715;SDS011;59053;50.832;12.882;2023-04-08T10:16:25;29.50;;;10.10;;
70715;SDS011;59053;50.832;12.882;2023-04-08T10:22:03;29.63;;;10.13;;
70715;SDS011;59053;50.832;12.882;2023-04-08T10:24:28;30.17;;;10.65;;
70715;SDS011;59053;50.832;12.882;2023-04-08T10:26:54;24.40;;;7.93;;
70715;SDS011;59053;50.832;12.882;2023-04-08T10:31:46;15.27;;;5.97;;
70715;SDS011;59053;50.832;12.882;2023-04-08T10:34:22;23.35;;;9.10;;
70715;SDS011;59053;50.832;12.882;2023-04-08T10:36:57;22.57;;;8.33;;
70715;SDS011;59053;50.832;12.882;2023-04-08T10:39:23;22.10;;;6.90;;
70715;SDS011;59053;50.832;12.882;2023-04-08T10:41:49;10.73;;;4.68;;
70715;SDS011;59053;50.832;12.882;2023-04-08T10:44:21;13.43;;;5.22;;
70715;SDS011;59053;50.832;12.882;2023-04-08T10:46:57;14.80;;;5.30;;
70715;SDS011;59053;50.832;12.882;2023-04-08T10:49:22;20.00;;;6.50;;
70715;SDS011;59053;50.832;12.882;2023-04-08T10:51:57;14.48;;;6.07;;
70715;SDS011;59053;50.832;12.882;2023-04-08T10:54:22;15.97;;;5.80;;
70715;SDS011;59053;50.832;12.882;2023-04-08T10:56:48;15.57;;;6.30;;
70715;SDS011;59053;50.832;12.882;2023-04-08T10:59:15;14.35;;;5.78;;
70715;SDS011;59053;50.832;12.882;2023-04-08T11:01:53;10.27;;;4.40;;
70715;SDS011;59053;50.832;12.882;2023-04-08T11:04:19;9.90;;;4.13;;
70715;SDS011;59053;50.832;12.882;2023-04-08T11:06:45;14.97;;;5.70;;
70715;SDS011;59053;50.832;12.882;2023-04-08T11:09:14;10.85;;;4.68;;
70715;SDS011;59053;50.832;12.882;2023-04-08T11:14:20;10.70;;;4.13;;
70715;SDS011;59053;50.832;12.882;2023-04-08T11:16:56;8.02;;;3.22;;
70715;SDS011;59053;50.832;12.882;2023-04-08T11:19:23;11.88;;;4.82;;
70715;SDS011;59053;50.832;12.882;2023-04-08T11:21:49;11.00;;;3.67;;
70715;SDS011;59053;50.832;12.882;2023-04-08T11:24:24;5.50;;;2.55;;
70715;SDS011;59053;50.832;12.882;2023-04-08T11:26:50;7.13;;;3.37;;
70715;SDS011;59053;50.832;12.882;2023-04-08T11:29:15;8.55;;;3.38;;
70715;SDS011;59053;50.832;12.882;2023-04-08T11:31:51;7.33;;;3.07;;
70715;SDS011;59053;50.832;12.882;2023-04-08T11:34:23;10.35;;;4.35;;
70715;SDS011;59053;50.832;12.882;2023-04-08T11:36:49;10.50;;;4.55;;
70715;SDS011;59053;50.832;12.882;2023-04-08T11:39:17;12.20;;;4.67;;
70715;SDS011;59053;50.832;12.882;2023-04-08T11:41:42;8.25;;;2.80;;
70715;SDS011;59053;50.832;12.882;2023-04-08T11:44:09;7.72;;;3.45;;
70715;SDS011;59053;50.832;12.882;2023-04-08T11:47:12;11.80;;;4.55;;
70715;SDS011;59053;50.832;12.882;2023-04-08T11:49:44;9.30;;;3.55;;
70715;SDS011;59053;50.832;12.882;2023-04-08T11:52:11;10.97;;;5.57;;
70715;SDS011;59053;50.832;12.882;2023-04-08T11:54:39;12.65;;;5.22;;
70715;SDS011;59053;50.832;12.882;2023-04-08T11:57:06;14.00;;;5.57;;
70715;SDS011;59053;50.832;12.882;2023-04-08T11:59:31;12.65;;;4.75;;
70715;SDS011;59053;50.832;12.882;2023-04-08T12:01:57;11.80;;;4.83;;
70715;SDS011;59053;50.832;12.882;2023-04-08T12:04:23;9.03;;;3.37;;
70715;SDS011;59053;50.832;12.882;2023-04-08T12:06:48;13.57;;;5.05;;
70715;SDS011;59053;50.832;12.882;2023-04-08T12:09:19;12.47;;;5.17;;
70715;SDS011;59053;50.832;12.882;2023-04-08T12:11:44;13.25;;;5.30;;
70715;SDS011;59053;50.832;12.882;2023-04-08T12:14:10;13.97;;;5.40;;
70715;SDS011;59053;50.832;12.882;2023-04-08T12:16:35;11.70;;;4.93;;
70715;SDS011;59053;50.832;12.882;2023-04-08T12:19:01;13.00;;;4.63;;
70715;SDS011;59053;50.832;12.882;2023-04-08T12:21:26;15.33;;;5.63;;
70715;SDS011;59053;50.832;12.882;2023-04-08T12:23:54;12.63;;;5.15;;
70715;SDS011;59053;50.832;12.882;2023-04-08T12:26:19;15.30;;;5.53;;
70715;SDS011;59053;50.832;12.882;2023-04-08T12:28:45;9.97;;;4.20;;
70715;SDS011;59053;50.832;12.882;2023-04-08T12:31:10;10.53;;;4.47;;
70715;SDS011;59053;50.832;12.882;2023-04-08T12:33:40;9.98;;;4.22;;
70715;SDS011;59053;50.832;12.882;2023-04-08T12:36:11;10.98;;;4.80;;
70715;SDS011;59053;50.832;12.882;2023-04-08T12:38:59;15.33;;;5.93;;
70715;SDS011;59053;50.832;12.882;2023-04-08T12:44:02;12.63;;;5.20;;
70715;SDS011;59053;50.832;12.882;2023-04-08T12:46:27;18.55;;;6.40;;
70715;SDS011;59053;50.832;12.882;2023-04-08T12:48:53;11.87;;;4.70;;
70715;SDS011;59053;50.832;12.882;2023-04-08T12:51:24;11.53;;;4.10;;
70715;SDS011;59053;50.832;12.882;2023-04-08T12:53:50;15.13;;;5.85;;
70715;SDS011;59053;50.832;12.882;2023-04-08T12:56:16;12.20;;;4.90;;
70715;SDS011;59053;50.832;12.882;2023-04-08T12:58:43;14.67;;;5.73;;
70715;SDS011;59053;50.832;12.882;2023-04-08T13:01:09;14.20;;;6.05;;
70715;SDS011;59053;50.832;12.882;2023-04-08T13:03:34;16.17;;;6.57;;
70715;SDS011;59053;50.832;12.882;2023-04-08T13:06:00;14.17;;;5.00;;
70715;SDS011;59053;50.832;12.882;2023-04-08T13:08:26;16.90;;;6.07;;
70715;SDS011;59053;50.832;12.882;2023-04-08T13:10:54;17.52;;;6.47;;
70715;SDS011;59053;50.832;12.882;2023-04-08T13:13:19;12.67;;;5.50;;
70715;SDS011;59053;50.832;12.882;2023-04-08T13:15:46;15.13;;;5.70;;
70715;SDS011;59053;50.832;12.882;2023-04-08T13:18:12;13.65;;;5.90;;
70715;SDS011;59053;50.832;12.882;2023-04-08T13:20:38;17.08;;;6.57;;
70715;SDS011;59053;50.832;12.882;2023-04-08T13:23:05;13.77;;;5.70;;
70715;SDS011;59053;50.832;12.882;2023-04-08T13:25:31;16.58;;;5.82;;
70715;SDS011;59053;50.832;12.882;2023-04-08T13:27:56;18.17;;;7.53;;
70715;SDS011;59053;50.832;12.882;2023-04-08T13:30:33;16.77;;;7.40;;
70715;SDS011;59053;50.832;12.882;2023-04-08T13:32:58;15.35;;;6.53;;
70715;SDS011;59053;50.832;12.882;2023-04-08T13:35:26;20.87;;;8.60;;
70715;SDS011;59053;50.832;12.882;2023-04-08T13:37:51;18.08;;;7.47;;
70715;SDS011;59053;50.832;12.882;2023-04-08T13:40:17;20.17;;;8.20;;
70715;SDS011;59053;50.832;12.882;2023-04-08T13:42:42;12.77;;;5.47;;
70715;SDS011;59053;50.832;12.882;2023-04-08T13:45:10;20.42;;;8.20;;
70715;SDS011;59053;50.832;12.882;2023-04-08T13:47:36;22.27;;;9.33;;
70715;SDS011;59053;50.832;12.882;2023-04-08T13:50:02;23.20;;;9.18;;
70715;SDS011;59053;50.832;12.882;2023-04-08T13:52:29;15.50;;;6.77;;
70715;SDS011;59053;50.832;12.882;2023-04-08T13:54:54;19.17;;;7.22;;
70715;SDS011;59053;50.832;12.882;2023-04-08T13:57:26;23.08;;;9.38;;
70715;SDS011;59053;50.832;12.882;2023-04-08T13:59:53;18.90;;;7.10;;
70715;SDS011;59053;50.832;12.882;2023-04-08T14:02:18;23.88;;;10.13;;
70715;SDS011;59053;50.832;12.882;2023-04-08T14:04:49;25.90;;;10.10;;
70715;SDS011;59053;50.832;12.882;2023-04-08T14:07:16;20.52;;;8.50;;
70715;SDS011;59053;50.832;12.882;2023-04-08T14:09:44;23.90;;;9.85;;
70715;SDS011;59053;50.832;12.882;2023-04-08T14:12:11;18.67;;;7.40;;
70715;SDS011;59053;50.832;12.882;2023-04-08T14:14:37;24.63;;;9.75;;
70715;SDS011;59053;50.832;12.882;2023-04-08T14:17:08;14.53;;;6.90;;
70715;SDS011;59053;50.832;12.882;2023-04-08T14:19:35;25.90;;;10.70;;
70715;SDS011;59053;50.832;12.882;2023-04-08T14:22:01;23.33;;;8.95;;
70715;SDS011;59053;50.832;12.882;2023-04-08T14:24:28;23.50;;;9.77;;
70715;SDS011;59053;50.832;12.882;2023-04-08T14:27:01;22.00;;;8.35;;
70715;SDS011;59053;50.832;12.882;2023-04-08T14:29:27;23.40;;;10.27;;
70715;SDS011;59053;50.832;12.882;2023-04-08T14:31:53;24.10;;;10.50;;
70715;SDS011;59053;50.832;12.882;2023-04-08T14:34:18;23.42;;;9.43;;
70715;SDS011;59053;50.832;12.882;2023-04-08T14:36:46;25.20;;;10.50;;
70715;SDS011;59053;50.832;12.882;2023-04-08T14:39:11;27.65;;;10.52;;
70715;SDS011;59053;50.832;12.882;2023-04-08T14:41:40;24.77;;;10.07;;
70715;SDS011;59053;50.832;12.882;2023-04-08T14:44:05;25.20;;;10.40;;
70715;SDS011;59053;50.832;12.882;2023-04-08T14:46:31;17.45;;;7.25;;
70715;SDS011;59053;50.832;12.882;2023-04-08T14:48:56;27.13;;;11.03;;
70715;SDS011;59053;50.832;12.882;2023-04-08T14:51:22;28.13;;;11.23;;
70715;SDS011;59053;50.832;12.882;2023-04-08T14:53:48;26.10;;;10.50;;
70715;SDS011;59053;50.832;12.882;2023-04-08T14:56:16;22.80;;;9.07;;
70715;SDS011;59053;50.832;12.882;2023-04-08T14:58:42;21.13;;;8.50;;
70715;SDS011;59053;50.832;12.882;2023-04-08T15:01:07;26.40;;;9.90;;
70715;SDS011;59053;50.832;12.882;2023-04-08T15:03:32;27.20;;;10.82;;
70715;SDS011;59053;50.832;12.882;2023-04-08T15:05:58;26.43;;;11.23;;
70715;SDS011;59053;50.832;12.882;2023-04-08T15:08:29;29.17;;;12.23;;
70715;SDS011;59053;50.832;12.882;2023-04-08T15:10:55;26.63;;;11.13;;
70715;SDS011;59053;50.832;12.882;2023-04-08T15:13:21;26.25;;;10.38;;
70715;SDS011;59053;50.832;12.882;2023-04-08T15:15:49;27.07;;;10.97;;
70715;SDS011;59053;50.832;12.882;2023-04-08T15:18:14;26.92;;;11.05;;
70715;SDS011;59053;50.832;12.882;2023-04-08T15:20:39;26.57;;;10.60;;
70715;SDS011;59053;50.832;12.882;2023-04-08T15:23:05;26.38;;;9.65;;
70715;SDS011;59053;50.832;12.882;2023-04-08T15:25:31;27.58;;;11.27;;
70715;SDS011;59053;50.832;12.882;2023-04-08T15:27:57;24.50;;;10.43;;